Startpagina
METAR-TAF:

METAR-TAF

Vliegvelden :

Aeropuerto de Gran Canaria

Gran Canaria, Spanje

breedte: 27-56N, lengte: 015-23W, hoogte: 23 m

Actueel weer

Dit bericht is 41 minuten geleden gemaakt, om 07:30 UTC
Wind 5 kt uit het noordwesten
Temperatuur 18°C
Vochtigheid 73%
Druk 1013 hPa
Zicht 10 km of meer
Weinig wolken op 3500 ft

METAR: GCLP 200730Z 31005KT 9999 FEW035 18/13 Q1013 NOSIG

Tijdstip: 09:11 (08:11 UTC)

Verwachting

Dit bericht is 6 uur en het 11 minuten geleden gemaakt, om 02:00 UTC
Verwachting geldig van 20 om 03 UTC tot 21 om 03 UTC
Wind 10 kt uit het noordwesten
Zicht 10 km of meer
Weinig wolken op 3000 ft
Wijzigt naar
van 20 om 10 UTC tot 20 om 12 UTC
Wind 8 kt uit het noordoosten
Wijzigt naar
van 20 om 19 UTC tot 20 om 21 UTC
Wind 10 kt uit het westnoordwesten
Kans 30% :
Tijdelijke
van 20 om 10 UTC tot 20 om 17 UTC
regen

TAF: GCLP 200200Z 2003/2103 32010KT 9999 FEW030 TX25/2014Z TN19/2005Z BECMG 2010/2012 05008KT BECMG 2019/2021 30010KT PROB30 TEMPO 2010/2017 RA

Waarnemingen en weersverwachtingen van meer dan 4000 vliegvelden (METAR en TAF).

De beschikbare stations zijn de gele en rode punten op de kaart.

Ga met uw muis naar het station om de naam te zien.

Klik dan om waarnemingen en weersverwachtingen te zien.

kaart wijzigen: klik op de groene knoppen met een zwart kruis om in te zoomen, op de groene knop met een streepje om uit te zoomen of op de groene pijlen voor aangrenzende kaarten.


METAR-TAF: